This is the latest recevied weather packets stored in our database for station/object DF7ER-12. If no packets are shown the sender has not sent any weather packets the latest 10 day(s).
| Time | Temp. | Humidity | Pressure | Rain* | Wind** | Luminosity | Snow |
|---|---|---|---|---|---|---|---|
| 1777892525 | 20° C | 88% | 1002.7 hPa | - | - | - | - |
| 1777892224 | 19.44° C | 94% | 1002.7 hPa | - | - | - | - |
| 1777891924 | 18.89° C | 97% | 1002.7 hPa | - | - | - | - |
| 1777891624 | 18.89° C | 99% | 1002.8 hPa | - | - | - | - |
| 1777891324 | 19.44° C | 95% | 1002.8 hPa | - | - | - | - |
| 1777891024 | 19.44° C | 96% | 1002.8 hPa | - | - | - | - |
| 1777890724 | 20° C | 92% | 1002.9 hPa | - | - | - | - |
| 1777890424 | 19.44° C | 95% | 1002.9 hPa | - | - | - | - |
| 1777890124 | 19.44° C | 94% | 1002.8 hPa | - | - | - | - |
| 1777889825 | 20° C | 91% | 1002.8 hPa | - | - | - | - |
| 1777889525 | 19.44° C | 92% | 1002.8 hPa | - | - | - | - |
| 1777889224 | 19.44° C | 95% | 1002.7 hPa | - | - | - | - |
| 1777888924 | 20° C | 85% | 1002.7 hPa | - | - | - | - |
| 1777888625 | 20° C | 81% | 1002.6 hPa | - | - | - | - |
| 1777888324 | 21.67° C | 78% | 1002.6 hPa | - | - | - | - |
| 1777888024 | 21.11° C | 79% | 1002.6 hPa | - | - | - | - |
| 1777887724 | 21.67° C | 77% | 1002.6 hPa | - | - | - | - |
| 1777887424 | 22.22° C | 75% | 1002.7 hPa | - | - | - | - |
| 1777887124 | 22.78° C | 75% | 1002.7 hPa | - | - | - | - |
| 1777886824 | 22.22° C | 77% | 1002.7 hPa | - | - | - | - |
| 1777886524 | 22.22° C | 78% | 1002.7 hPa | - | - | - | - |
| 1777886224 | 21.11° C | 82% | 1002.7 hPa | - | - | - | - |
| 1777885924 | 21.11° C | 81% | 1002.8 hPa | - | - | - | - |
| 1777885624 | 21.11° C | 81% | 1002.7 hPa | - | - | - | - |
| 1777885324 | 21.11° C | 81% | 1002.8 hPa | - | - | - | - |
* Rain since midnight (hover to see other rain measurements)
** Current wind speed in m/s (hover to see current wind gust speed)